createdAt,value
2022-11-26T00:02:22.999Z,1.33
2022-11-26T00:04:51.762Z,1.20
2022-11-26T00:07:28.834Z,1.20
2022-11-26T00:09:57.814Z,1.50
2022-11-26T00:12:31.323Z,1.30
2022-11-26T00:15:00.653Z,1.23
2022-11-26T00:17:27.506Z,1.30
2022-11-26T00:19:54.526Z,1.30
2022-11-26T00:22:35.325Z,1.50
2022-11-26T00:25:02.189Z,1.17
2022-11-26T00:27:29.150Z,1.30
2022-11-26T00:29:56.450Z,1.38
2022-11-26T00:32:26.439Z,1.23
2022-11-26T00:34:54.014Z,1.20
2022-11-26T00:37:41.616Z,1.25
2022-11-26T00:40:20.942Z,1.20
2022-11-26T00:42:48.363Z,1.10
2022-11-26T00:45:19.446Z,1.30
2022-11-26T00:47:46.631Z,1.27
2022-11-26T00:50:17.383Z,1.05
2022-11-26T00:52:46.369Z,1.30
2022-11-26T00:55:34.785Z,1.40
2022-11-26T00:58:02.270Z,1.30
2022-11-26T01:00:33.690Z,1.25
2022-11-26T01:03:01.818Z,1.33
2022-11-26T01:05:33.372Z,1.20
2022-11-26T01:08:14.316Z,1.30
2022-11-26T01:10:41.170Z,1.40
2022-11-26T01:13:11.115Z,1.20
2022-11-26T01:15:38.087Z,1.30
2022-11-26T01:18:16.776Z,1.33
2022-11-26T01:20:44.826Z,0.90
2022-11-26T01:23:15.271Z,1.20
2022-11-26T01:25:43.276Z,1.10
2022-11-26T01:28:17.682Z,1.58
2022-11-26T01:30:45.382Z,1.30
2022-11-26T01:33:12.305Z,1.05
2022-11-26T01:35:39.429Z,1.50
2022-11-26T01:38:06.363Z,1.20
2022-11-26T01:41:07.673Z,1.30
2022-11-26T01:43:41.983Z,1.13
2022-11-26T01:46:22.453Z,1.40
2022-11-26T01:48:50.747Z,1.27
2022-11-26T01:51:28.886Z,1.20
2022-11-26T01:54:00.980Z,1.20
2022-11-26T01:56:43.957Z,1.25
2022-11-26T01:59:24.576Z,1.30
2022-11-26T02:01:55.109Z,1.40
2022-11-26T02:04:36.141Z,1.27
2022-11-26T02:07:04.094Z,1.20
2022-11-26T02:09:32.361Z,1.15
2022-11-26T02:11:59.385Z,1.20
2022-11-26T02:14:35.255Z,1.38
2022-11-26T02:17:40.870Z,1.23
2022-11-26T02:20:31.897Z,1.40
2022-11-26T02:23:26.402Z,1.40
2022-11-26T02:26:27.523Z,1.20
2022-11-26T02:29:12.200Z,1.20
2022-11-26T02:31:57.960Z,1.20
2022-11-26T02:34:46.075Z,1.20
2022-11-26T02:37:36.820Z,1.35
2022-11-26T02:40:05.538Z,1.02
2022-11-26T02:42:36.022Z,1.20
2022-11-26T02:45:17.696Z,1.00
2022-11-26T02:47:48.948Z,1.25
2022-11-26T02:50:29.335Z,1.38
2022-11-26T02:52:58.949Z,1.30
2022-11-26T02:55:34.380Z,1.30
2022-11-26T02:58:02.644Z,1.30
2022-11-26T03:00:33.895Z,1.40
2022-11-26T03:03:22.982Z,1.10
2022-11-26T03:06:05.397Z,1.20
2022-11-26T03:08:33.481Z,1.08
2022-11-26T03:11:00.679Z,1.15
2022-11-26T03:13:28.259Z,1.27
2022-11-26T03:15:55.174Z,1.30
2022-11-26T03:18:22.047Z,1.55
2022-11-26T03:20:52.201Z,1.30
2022-11-26T03:23:19.895Z,1.30
2022-11-26T03:25:47.157Z,1.30
2022-11-26T03:28:14.668Z,1.42
2022-11-26T03:30:41.590Z,1.23
2022-11-26T03:33:11.228Z,1.20
2022-11-26T03:35:38.061Z,1.10
2022-11-26T03:38:04.963Z,1.10
2022-11-26T03:40:31.919Z,1.15
2022-11-26T03:42:58.858Z,1.35
2022-11-26T03:45:26.155Z,1.15
2022-11-26T03:47:53.181Z,1.20
2022-11-26T03:50:20.072Z,1.27
2022-11-26T03:52:47.006Z,1.35
2022-11-26T03:55:14.031Z,1.25
2022-11-26T03:57:40.953Z,1.10
2022-11-26T04:00:11.439Z,1.13
2022-11-26T04:02:38.318Z,1.10
2022-11-26T04:05:06.027Z,1.30
2022-11-26T04:07:32.880Z,1.10
2022-11-26T04:09:59.921Z,1.15
2022-11-26T04:12:26.738Z,1.20
2022-11-26T04:14:53.630Z,1.30
2022-11-26T04:17:20.465Z,1.08
2022-11-26T04:19:47.295Z,1.35
2022-11-26T04:22:14.206Z,1.20
2022-11-26T04:24:41.231Z,1.63
2022-11-26T04:27:08.634Z,1.15
2022-11-26T04:29:37.412Z,1.45
2022-11-26T04:32:05.219Z,1.23
2022-11-26T04:34:32.620Z,1.30
2022-11-26T04:36:59.509Z,1.02
2022-11-26T04:39:26.428Z,1.20
2022-11-26T04:41:53.260Z,1.10
2022-11-26T04:44:20.156Z,1.15
2022-11-26T04:46:47.111Z,1.27
2022-11-26T04:49:14.147Z,1.10
2022-11-26T04:51:41.124Z,1.40
2022-11-26T04:54:12.745Z,1.23
2022-11-26T04:56:40.627Z,1.13
2022-11-26T04:59:08.033Z,1.50
2022-11-26T05:01:35.336Z,1.02
2022-11-26T05:04:02.348Z,1.40
2022-11-26T05:06:29.168Z,1.17
2022-11-26T05:08:56.117Z,1.27
2022-11-26T05:11:23.079Z,1.08
2022-11-26T05:13:49.950Z,1.13
2022-11-26T05:16:16.905Z,1.17
2022-11-26T05:18:45.122Z,1.40
2022-11-26T05:21:12.013Z,1.27
2022-11-26T05:23:38.915Z,1.13
2022-11-26T05:26:06.093Z,1.20
2022-11-26T05:28:33.259Z,1.30
2022-11-26T05:31:02.337Z,1.00
2022-11-26T05:33:30.082Z,1.10
2022-11-26T05:35:56.964Z,1.00
2022-11-26T05:38:24.046Z,1.02
2022-11-26T05:40:51.182Z,1.20
2022-11-26T05:43:18.347Z,1.33
2022-11-26T05:45:45.253Z,1.17
2022-11-26T05:48:12.211Z,1.10
2022-11-26T05:50:39.109Z,1.27
2022-11-26T05:53:06.077Z,1.20
2022-11-26T05:55:33.010Z,1.40
2022-11-26T05:57:59.958Z,1.17
2022-11-26T06:00:27.080Z,0.95
2022-11-26T06:02:54.085Z,1.10
2022-11-26T06:05:22.001Z,1.30
2022-11-26T06:07:49.760Z,1.50
2022-11-26T06:10:16.924Z,1.63
2022-11-26T06:12:43.793Z,1.13
2022-11-26T06:15:11.012Z,1.05
2022-11-26T06:17:37.963Z,1.10
2022-11-26T06:20:06.362Z,1.15
2022-11-26T06:22:41.847Z,1.20
2022-11-26T06:25:13.565Z,1.33
2022-11-26T06:27:41.957Z,0.90
2022-11-26T06:30:11.528Z,1.30
2022-11-26T06:32:38.399Z,0.98
2022-11-26T06:35:05.728Z,1.40
2022-11-26T06:37:33.460Z,1.30
2022-11-26T06:40:00.727Z,1.30
2022-11-26T06:42:27.766Z,1.20
2022-11-26T06:44:58.456Z,1.05
2022-11-26T06:47:27.050Z,1.02
2022-11-26T06:49:54.049Z,1.10
2022-11-26T06:52:23.798Z,1.30
2022-11-26T06:54:50.735Z,1.08
2022-11-26T06:57:18.064Z,1.20
2022-11-26T06:59:46.486Z,1.00
2022-11-26T07:02:13.426Z,0.90
2022-11-26T07:04:40.675Z,1.13
2022-11-26T07:07:08.062Z,1.33
2022-11-26T07:09:34.933Z,1.20
2022-11-26T07:12:01.949Z,1.20
2022-11-26T07:14:28.871Z,1.30
2022-11-26T07:16:55.933Z,1.35
2022-11-26T07:19:22.829Z,1.13
2022-11-26T07:21:49.718Z,1.23
2022-11-26T07:24:16.758Z,1.20
2022-11-26T07:26:43.911Z,1.02
2022-11-26T07:29:10.842Z,1.52
2022-11-26T07:31:40.041Z,1.15
2022-11-26T07:34:07.023Z,1.13
2022-11-26T07:36:33.942Z,1.10
2022-11-26T07:39:02.823Z,1.30
2022-11-26T07:41:30.479Z,1.23
2022-11-26T07:43:57.467Z,1.02
2022-11-26T07:46:26.210Z,1.23
2022-11-26T07:48:54.999Z,1.20
2022-11-26T07:51:23.442Z,1.40
2022-11-26T07:53:51.950Z,1.13
2022-11-26T07:56:19.579Z,1.15
2022-11-26T07:58:47.366Z,1.15
2022-11-26T08:01:19.431Z,1.05
2022-11-26T08:03:51.386Z,1.23
2022-11-26T08:06:22.230Z,1.30
2022-11-26T08:08:50.011Z,1.20
2022-11-26T08:11:30.006Z,1.20
2022-11-26T08:14:01.007Z,0.90
2022-11-26T08:16:29.212Z,1.30
2022-11-26T08:19:07.844Z,1.13
2022-11-26T08:21:35.387Z,1.38
2022-11-26T08:24:05.720Z,1.10
2022-11-26T08:26:37.216Z,1.10
2022-11-26T08:29:05.879Z,1.23
2022-11-26T08:31:34.734Z,1.08
2022-11-26T08:34:05.695Z,1.20
2022-11-26T08:36:33.034Z,1.10
2022-11-26T08:39:01.200Z,1.20
2022-11-26T08:41:28.375Z,0.95
2022-11-26T08:44:10.904Z,1.50
2022-11-26T08:46:41.805Z,1.00
2022-11-26T08:49:16.182Z,1.25
2022-11-26T08:51:51.995Z,1.52
2022-11-26T08:54:21.275Z,1.50
2022-11-26T08:56:48.406Z,1.33
2022-11-26T08:59:17.431Z,1.52
2022-11-26T09:01:44.616Z,1.60
2022-11-26T09:04:14.401Z,1.30
2022-11-26T09:06:42.150Z,1.23
2022-11-26T09:09:18.347Z,1.50
2022-11-26T09:11:58.154Z,1.17
2022-11-26T09:14:29.586Z,1.30
2022-11-26T09:16:58.573Z,1.23
2022-11-26T09:19:27.054Z,1.17
2022-11-26T09:21:54.932Z,1.27
2022-11-26T09:24:23.248Z,1.23
2022-11-26T09:26:50.464Z,1.77
2022-11-26T09:29:22.768Z,1.10
2022-11-26T09:34:38.892Z,1.30
2022-11-26T09:37:09.149Z,1.45
2022-11-26T09:39:36.171Z,1.35
2022-11-26T09:42:15.541Z,1.60
2022-11-26T09:45:33.685Z,1.40
2022-11-26T09:48:03.347Z,1.40
2022-11-26T09:50:35.452Z,1.70
2022-11-26T09:53:30.626Z,1.35
2022-11-26T09:55:58.854Z,1.33
2022-11-26T09:58:37.107Z,1.35
2022-11-26T10:01:07.290Z,1.30
2022-11-26T10:03:37.674Z,1.98
2022-11-26T10:06:27.301Z,1.50
2022-11-26T10:09:23.391Z,1.20
2022-11-26T10:12:45.980Z,1.23
2022-11-26T10:15:38.799Z,1.40
2022-11-26T10:18:33.091Z,1.50
2022-11-26T10:21:26.983Z,1.30
2022-11-26T10:24:14.188Z,1.70
2022-11-26T10:26:43.177Z,1.70
2022-11-26T10:29:26.966Z,1.55
2022-11-26T10:32:02.170Z,1.35
2022-11-26T10:34:41.834Z,1.48
2022-11-26T10:37:09.102Z,1.58
2022-11-26T10:39:36.387Z,2.40
2022-11-26T10:42:23.852Z,1.70
2022-11-26T10:44:53.388Z,1.40
2022-11-26T10:47:31.208Z,1.88
2022-11-26T10:50:19.210Z,1.50
2022-11-26T10:52:55.140Z,1.30
2022-11-26T10:55:32.612Z,1.73
2022-11-26T10:58:14.074Z,1.98
2022-11-26T11:00:49.395Z,1.73
2022-11-26T11:04:06.134Z,1.60
2022-11-26T11:06:19.775Z,1.40
2022-11-26T11:08:53.205Z,1.83
2022-11-26T11:11:31.589Z,1.92
2022-11-26T11:13:58.918Z,1.70
2022-11-26T11:16:39.555Z,2.10
2022-11-26T11:19:25.623Z,2.13
2022-11-26T11:21:56.364Z,1.52
2022-11-26T11:24:28.154Z,1.45
2022-11-26T11:27:00.674Z,1.80
2022-11-26T11:29:34.231Z,1.67
2022-11-26T11:32:05.053Z,1.70
2022-11-26T11:34:38.556Z,1.77
2022-11-26T11:37:23.891Z,1.48
2022-11-26T11:40:27.563Z,1.75
2022-11-26T11:42:59.335Z,1.80
2022-11-26T11:45:34.984Z,1.88
2022-11-26T11:48:46.938Z,1.50
2022-11-26T11:51:45.902Z,1.40
2022-11-26T11:54:28.306Z,1.48
2022-11-26T11:57:13.953Z,1.30
2022-11-26T12:00:16.332Z,1.95
2022-11-26T12:03:10.609Z,1.50
2022-11-26T12:05:56.190Z,1.35
2022-11-26T12:08:59.169Z,1.40
2022-11-26T12:11:51.674Z,1.73
2022-11-26T12:14:28.949Z,1.20
2022-11-26T12:17:37.388Z,1.50
2022-11-26T12:20:39.433Z,1.25
2022-11-26T12:23:25.032Z,1.40
2022-11-26T12:26:19.722Z,1.42
2022-11-26T12:29:30.837Z,1.42
2022-11-26T12:32:17.119Z,1.33
2022-11-26T12:34:54.259Z,1.35
2022-11-26T12:37:36.301Z,1.30
2022-11-26T12:40:34.513Z,1.30
2022-11-26T12:43:21.468Z,1.13
2022-11-26T12:47:02.083Z,1.17
2022-11-26T12:50:12.983Z,1.27
2022-11-26T12:53:31.750Z,1.27
2022-11-26T12:56:23.687Z,1.38
2022-11-26T12:59:20.693Z,0.98
2022-11-26T13:01:47.833Z,1.27
2022-11-26T13:07:42.224Z,1.13
2022-11-26T13:10:34.633Z,1.17
2022-11-26T13:13:15.246Z,1.15
2022-11-26T13:16:07.966Z,0.90
2022-11-26T13:18:45.199Z,1.27
2022-11-26T13:21:45.733Z,1.08
2022-11-26T13:24:30.928Z,1.02
2022-11-26T13:27:46.305Z,1.20
2022-11-26T13:30:37.925Z,1.20
2022-11-26T13:33:38.503Z,1.25
2022-11-26T13:36:42.482Z,1.35
2022-11-26T13:39:37.157Z,1.20
2022-11-26T13:42:12.953Z,1.30
2022-11-26T13:45:05.338Z,1.00
2022-11-26T13:47:49.642Z,1.23
2022-11-26T13:50:26.214Z,1.02
2022-11-26T13:53:06.557Z,1.20
2022-11-26T13:55:45.958Z,1.10
2022-11-26T13:58:35.902Z,0.82
2022-11-26T14:01:40.186Z,1.30
2022-11-26T14:04:30.702Z,1.20
2022-11-26T14:07:06.925Z,1.25
2022-11-26T14:09:43.559Z,1.00
2022-11-26T14:12:12.853Z,1.33
2022-11-26T14:14:42.173Z,1.05
2022-11-26T14:17:15.262Z,1.10
2022-11-26T14:19:47.215Z,1.17
2022-11-26T14:22:20.350Z,1.08
2022-11-26T14:24:50.611Z,1.00
2022-11-26T14:27:57.239Z,1.08
2022-11-26T14:30:27.566Z,1.15
2022-11-26T14:33:00.567Z,0.95
2022-11-26T14:35:33.888Z,0.90
2022-11-26T14:38:05.761Z,1.27
2022-11-26T14:40:41.722Z,0.93
2022-11-26T14:43:17.665Z,0.88
2022-11-26T14:46:01.801Z,1.02
2022-11-26T14:48:31.809Z,1.00
2022-11-26T14:51:01.602Z,1.08
2022-11-26T14:53:33.305Z,1.08
2022-11-26T14:56:01.729Z,1.33
2022-11-26T14:58:32.465Z,1.10
2022-11-26T15:01:24.115Z,1.20
2022-11-26T15:04:04.943Z,1.10
2022-11-26T15:06:43.251Z,0.98
2022-11-26T15:09:28.830Z,1.20
2022-11-26T15:12:09.117Z,0.75
2022-11-26T15:14:46.985Z,1.00
2022-11-26T15:17:22.375Z,1.10
2022-11-26T15:19:52.856Z,0.82
2022-11-26T15:22:39.872Z,1.10
2022-11-26T15:25:21.351Z,1.08
2022-11-26T15:28:06.754Z,1.10
2022-11-26T15:30:37.705Z,1.30
2022-11-26T15:33:14.194Z,0.80
2022-11-26T15:35:41.811Z,1.00
2022-11-26T15:38:18.668Z,1.00
2022-11-26T15:41:16.647Z,0.98
2022-11-26T15:43:47.781Z,1.00
2022-11-26T15:46:52.901Z,0.98
2022-11-26T15:49:35.295Z,1.13
2022-11-26T15:52:15.079Z,0.90
2022-11-26T15:55:12.105Z,1.02
2022-11-26T15:57:42.028Z,1.00
2022-11-26T16:00:31.654Z,1.20
2022-11-26T16:02:58.980Z,1.00
2022-11-26T16:05:39.483Z,0.93
2022-11-26T16:08:30.222Z,1.00
2022-11-26T16:11:03.380Z,1.20
2022-11-26T16:13:32.919Z,1.17
2022-11-26T16:16:21.669Z,0.95
2022-11-26T16:19:00.299Z,1.42
2022-11-26T16:21:33.868Z,1.00
2022-11-26T16:24:43.896Z,1.00
2022-11-26T16:27:22.254Z,1.08
2022-11-26T16:29:49.334Z,0.90
2022-11-26T16:32:18.591Z,1.00
2022-11-26T16:34:46.267Z,1.05
2022-11-26T16:37:26.388Z,1.20
2022-11-26T16:40:13.330Z,1.10
2022-11-26T16:42:40.495Z,1.13
2022-11-26T16:45:09.852Z,0.98
2022-11-26T16:47:42.291Z,1.00
2022-11-26T16:50:16.742Z,1.20
2022-11-26T16:52:44.026Z,1.20
2022-11-26T16:55:17.066Z,1.00
2022-11-26T16:57:58.311Z,1.10
2022-11-26T17:00:27.223Z,1.10
2022-11-26T17:02:54.958Z,1.13
2022-11-26T17:05:23.146Z,1.10
2022-11-26T17:07:56.061Z,1.02
2022-11-26T17:10:28.445Z,1.13
2022-11-26T17:12:56.890Z,0.93
2022-11-26T17:15:23.966Z,0.90
2022-11-26T17:17:56.605Z,0.98
2022-11-26T17:20:28.192Z,0.95
2022-11-26T17:22:55.192Z,1.10
2022-11-26T17:25:22.280Z,1.10
2022-11-26T17:27:49.463Z,1.10
2022-11-26T17:30:24.133Z,1.00
2022-11-26T17:32:51.730Z,0.90
2022-11-26T17:35:19.628Z,1.23
2022-11-26T17:37:46.928Z,1.00
2022-11-26T17:40:24.515Z,0.93
2022-11-26T17:42:51.939Z,1.00
2022-11-26T17:45:19.622Z,1.10
2022-11-26T17:47:47.064Z,1.17
2022-11-26T17:50:27.553Z,1.08
2022-11-26T17:52:55.194Z,1.17
2022-11-26T17:55:24.632Z,1.08
2022-11-26T17:57:52.659Z,0.95
2022-11-26T18:00:24.686Z,1.02
2022-11-26T18:02:52.366Z,0.98
2022-11-26T18:05:22.257Z,1.10
2022-11-26T18:07:50.149Z,1.17
2022-11-26T18:10:20.145Z,1.13
2022-11-26T18:12:48.215Z,1.20
2022-11-26T18:15:22.149Z,1.10
2022-11-26T18:17:52.048Z,1.20
2022-11-26T18:20:23.404Z,1.20
2022-11-26T18:22:53.170Z,1.05
2022-11-26T18:25:20.917Z,1.23
2022-11-26T18:27:48.148Z,1.10
2022-11-26T18:30:17.450Z,1.17
2022-11-26T18:32:44.719Z,1.25
2022-11-26T18:35:12.281Z,1.00
2022-11-26T18:37:41.065Z,1.10
2022-11-26T18:40:13.736Z,1.25
2022-11-26T18:42:40.860Z,1.10
2022-11-26T18:45:11.781Z,1.20
2022-11-26T18:47:39.192Z,1.13
2022-11-26T18:50:07.461Z,1.30
2022-11-26T18:52:34.470Z,1.10
2022-11-26T18:55:04.701Z,1.10
2022-11-26T18:57:32.267Z,1.17
2022-11-26T18:59:59.303Z,1.27
2022-11-26T19:02:28.861Z,1.13
2022-11-26T19:04:55.920Z,1.20
2022-11-26T19:07:23.110Z,1.27
2022-11-26T19:09:50.399Z,1.13
2022-11-26T19:12:17.701Z,1.48
2022-11-26T19:14:44.928Z,1.45
2022-11-26T19:17:15.317Z,1.90
2022-11-26T19:19:44.345Z,1.92
2022-11-26T19:22:11.581Z,2.20
2022-11-26T19:24:38.544Z,2.15
2022-11-26T19:27:05.514Z,1.70
2022-11-26T19:29:32.707Z,2.00
2022-11-26T19:31:59.966Z,2.47
2022-11-26T19:34:29.909Z,2.00
2022-11-26T19:36:57.840Z,2.45
2022-11-26T19:39:25.130Z,2.22
2022-11-26T19:41:52.289Z,1.98
2022-11-26T19:44:19.424Z,1.75
2022-11-26T19:46:48.281Z,1.92
2022-11-26T19:49:16.098Z,2.47
2022-11-26T19:51:43.725Z,1.70
2022-11-26T19:54:14.032Z,1.80
2022-11-26T19:56:43.175Z,1.70
2022-11-26T19:59:10.261Z,1.95
2022-11-26T20:01:37.699Z,1.85
2022-11-26T20:04:08.332Z,2.20
2022-11-26T20:06:36.331Z,1.58
2022-11-26T20:09:07.052Z,1.63
2022-11-26T20:11:38.542Z,1.80
2022-11-26T20:14:10.852Z,1.45
2022-11-26T20:16:41.736Z,1.85
2022-11-26T20:19:10.306Z,1.42
2022-11-26T20:21:37.926Z,1.58
2022-11-26T20:24:15.479Z,1.60
2022-11-26T20:26:45.301Z,1.40
2022-11-26T20:29:17.101Z,1.70
2022-11-26T20:31:52.699Z,1.35
2022-11-26T20:34:23.622Z,1.48
2022-11-26T20:36:50.713Z,1.60
2022-11-26T20:39:21.238Z,1.70
2022-11-26T20:41:48.798Z,1.73
2022-11-26T20:44:16.444Z,1.40
2022-11-26T20:46:45.645Z,1.65
2022-11-26T20:49:12.636Z,1.60
2022-11-26T20:51:39.919Z,1.55
2022-11-26T20:54:07.163Z,1.40
2022-11-26T20:56:37.902Z,1.30
2022-11-26T20:59:05.201Z,1.45
2022-11-26T21:01:32.718Z,1.27
2022-11-26T21:04:00.465Z,1.85
2022-11-26T21:06:30.396Z,1.60
2022-11-26T21:09:01.579Z,1.48
2022-11-26T21:11:29.990Z,1.58
2022-11-26T21:14:00.053Z,1.63
2022-11-26T21:16:28.376Z,1.40
2022-11-26T21:18:56.390Z,1.30
2022-11-26T21:21:25.088Z,1.38
2022-11-26T21:23:53.026Z,1.52
2022-11-26T21:26:26.241Z,1.33
2022-11-26T21:28:59.904Z,1.25
2022-11-26T21:31:29.826Z,1.38
2022-11-26T21:34:05.737Z,1.33
2022-11-26T21:36:35.865Z,1.58
2022-11-26T21:39:03.918Z,1.30
2022-11-26T21:41:33.572Z,1.27
2022-11-26T21:44:03.970Z,1.38
2022-11-26T21:46:37.873Z,1.42
2022-11-26T21:49:07.091Z,1.40
2022-11-26T21:51:34.174Z,1.50
2022-11-26T21:54:01.148Z,1.33
2022-11-26T21:56:31.320Z,1.35
2022-11-26T21:59:00.328Z,1.30
2022-11-26T22:01:30.747Z,1.30
2022-11-26T22:04:07.185Z,1.35
2022-11-26T22:06:35.202Z,1.45
2022-11-26T22:09:03.645Z,1.33
2022-11-26T22:11:35.741Z,1.45
2022-11-26T22:14:04.028Z,1.30
2022-11-26T22:16:31.881Z,1.13
2022-11-26T22:19:01.204Z,1.30
2022-11-26T22:21:42.611Z,1.27
2022-11-26T22:24:18.797Z,1.30
2022-11-26T22:26:46.528Z,1.40
2022-11-26T22:29:19.231Z,1.20
2022-11-26T22:31:48.365Z,1.02
2022-11-26T22:34:18.761Z,1.20
2022-11-26T22:36:46.174Z,1.08
2022-11-26T22:39:18.591Z,1.10
2022-11-26T22:41:47.639Z,1.20
2022-11-26T22:44:16.531Z,1.50
2022-11-26T22:46:44.613Z,1.10
2022-11-26T22:49:19.095Z,1.13
2022-11-26T22:51:47.480Z,1.25
2022-11-26T22:54:16.496Z,1.42
2022-11-26T22:56:43.529Z,1.30
2022-11-26T22:59:14.018Z,1.30
2022-11-26T23:01:41.802Z,1.13
2022-11-26T23:04:10.656Z,1.30
2022-11-26T23:06:39.314Z,1.00
2022-11-26T23:09:09.202Z,1.35
2022-11-26T23:11:44.148Z,1.40
2022-11-26T23:14:12.259Z,1.20
2022-11-26T23:16:42.633Z,1.35
2022-11-26T23:19:12.843Z,1.00
2022-11-26T23:21:42.767Z,1.20
2022-11-26T23:24:10.983Z,1.10
2022-11-26T23:26:40.173Z,1.10
2022-11-26T23:29:09.133Z,1.25
2022-11-26T23:31:40.398Z,1.05
2022-11-26T23:34:09.227Z,1.17
2022-11-26T23:36:37.784Z,1.00
2022-11-26T23:39:08.993Z,1.23
2022-11-26T23:41:36.626Z,1.27
2022-11-26T23:44:03.911Z,1.20
2022-11-26T23:46:32.993Z,1.10
2022-11-26T23:49:00.153Z,1.10
2022-11-26T23:51:33.546Z,1.13
2022-11-26T23:54:00.515Z,1.05
2022-11-26T23:56:31.437Z,1.10
2022-11-26T23:59:02.711Z,1.00
